Time;durP1;ratioP1;P1;durP2;ratioP2;P2;SDS_P1;SDS_P2;PMS_P1;PMS_P2;Temp;Humidity;BMP_temperature;BMP_pressure;BME280_temperature;BME280_humidity;BME280_pressure;Samples;Min_cycle;Max_cycle;Signal;HPM_P1;HPM_P2
2022/06/20 00:01:24;;;;;;;3.15;1.17;;;22.60;53.10;;;;;;5059031;28;20360;-61
2022/06/20 00:03:50;;;;;;;2.38;1.00;;;22.60;53.10;;;;;;5058087;28;20393;-61
2022/06/20 00:06:19;;;;;;;3.95;0.85;;;22.70;53.20;;;;;;5042166;28;20044;-61
2022/06/20 00:08:45;;;;;;;3.40;0.90;;;22.60;53.10;;;;;;5057529;28;20067;-61
2022/06/20 00:11:16;;;;;;;1.83;0.82;;;22.60;53.00;;;;;;5056759;28;20925;-62
2022/06/20 00:13:45;;;;;;;1.85;0.75;;;22.60;53.00;;;;;;5058248;28;20400;-61
2022/06/20 00:16:18;;;;;;;1.20;0.60;;;22.60;53.00;;;;;;5057629;28;20029;-61
2022/06/20 00:18:45;;;;;;;2.15;1.02;;;22.60;53.00;;;;;;5058132;28;20392;-61
2022/06/20 00:21:13;;;;;;;2.28;0.80;;;22.60;53.00;;;;;;5057244;28;20036;-61
2022/06/20 00:23:39;;;;;;;1.42;0.88;;;22.60;53.00;;;;;;5057632;28;20040;-61
2022/06/20 00:26:05;;;;;;;1.42;0.80;;;22.60;53.00;;;;;;5057039;28;20080;-64
2022/06/20 00:28:30;;;;;;;2.35;0.90;;;22.60;53.00;;;;;;5039866;28;20041;-62
2022/06/20 00:30:56;;;;;;;3.75;1.08;;;22.60;53.00;;;;;;5059229;28;20595;-62
2022/06/20 00:33:22;;;;;;;3.00;1.00;;;22.60;53.00;;;;;;5046402;28;20056;-62
2022/06/20 00:35:48;;;;;;;2.83;0.80;;;22.60;53.00;;;;;;5058140;28;20028;-61
2022/06/20 00:38:18;;;;;;;1.55;0.70;;;22.60;53.00;;;;;;5054039;28;20029;-61
2022/06/20 00:40:47;;;;;;;1.65;0.57;;;22.60;53.70;;;;;;5057224;28;20055;-61
2022/06/20 00:43:20;;;;;;;2.38;0.70;;;22.60;52.90;;;;;;5058201;28;20045;-61
2022/06/20 00:45:47;;;;;;;2.15;0.70;;;22.60;53.00;;;;;;5056508;28;20043;-61
2022/06/20 00:48:46;;;;;;;1.38;0.75;;;22.60;53.00;;;;;;5058229;28;20032;-61
2022/06/20 00:51:23;;;;;;;2.97;0.90;;;22.60;52.90;;;;;;5058405;28;20412;-62
2022/06/20 00:54:06;;;;;;;4.75;0.82;;;22.60;53.00;;;;;;5056968;28;20044;-62
2022/06/20 00:57:03;;;;;;;2.08;0.70;;;22.60;53.00;;;;;;5056581;28;20033;-61
2022/06/20 00:59:35;;;;;;;1.38;0.60;;;22.60;52.90;;;;;;5039253;28;20044;-62
2022/06/20 01:02:06;;;;;;;1.17;0.60;;;22.60;53.00;;;;;;5057300;28;20040;-61
2022/06/20 01:04:43;;;;;;;1.55;0.60;;;22.50;53.00;;;;;;5056124;28;20088;-61
2022/06/20 01:07:18;;;;;;;2.40;0.73;;;22.60;53.00;;;;;;5055154;28;20040;-62
2022/06/20 01:09:48;;;;;;;2.15;0.80;;;22.60;53.00;;;;;;5058106;28;20040;-61
2022/06/20 01:12:17;;;;;;;1.83;0.77;;;22.60;52.90;;;;;;5057278;28;20037;-61
2022/06/20 01:14:42;;;;;;;1.80;0.73;;;22.50;52.90;;;;;;5058695;28;20051;-61
2022/06/20 01:17:26;;;;;;;2.15;0.70;;;22.60;52.90;;;;;;5056332;28;20040;-62
2022/06/20 01:19:59;;;;;;;1.08;0.70;;;22.60;52.90;;;;;;5057002;28;20045;-61
2022/06/20 01:22:37;;;;;;;1.85;0.75;;;22.50;52.80;;;;;;5055214;28;20037;-62
2022/06/20 01:25:34;;;;;;;1.95;0.90;;;22.50;52.80;;;;;;5057996;28;20095;-62
2022/06/20 01:28:00;;;;;;;1.38;0.50;;;22.50;52.80;;;;;;5057068;28;20036;-62
2022/06/20 01:30:32;;;;;;;2.15;0.73;;;22.50;52.80;;;;;;5055466;28;20452;-61
2022/06/20 01:32:59;;;;;;;1.92;0.77;;;22.50;52.70;;;;;;5058240;28;20384;-61
2022/06/20 01:38:13;;;;;;;2.55;0.80;;;22.50;52.70;;;;;;5058096;28;20161;-61
2022/06/20 01:42:18;;;;;;;2.15;0.63;;;22.50;52.80;;;;;;5056695;28;20393;-61
2022/06/20 01:43:29;;;;;;;1.65;0.70;;;22.50;52.70;;;;;;5057814;28;20266;-61
2022/06/20 01:45:59;;;;;;;2.20;1.02;;;22.50;52.70;;;;;;5055338;28;20048;-61
2022/06/20 01:48:29;;;;;;;3.53;1.00;;;22.50;52.80;;;;;;5056371;28;20159;-61
2022/06/20 01:50:54;;;;;;;1.07;0.60;;;22.50;52.70;;;;;;5055552;28;20095;-61
2022/06/20 01:53:26;;;;;;;2.42;0.70;;;22.50;52.70;;;;;;5055920;28;20068;-61
2022/06/20 01:55:53;;;;;;;2.45;0.90;;;22.50;52.70;;;;;;5055428;28;20036;-61
2022/06/20 01:58:42;;;;;;;2.70;1.02;;;22.50;52.70;;;;;;5056108;28;20103;-62
2022/06/20 02:01:08;;;;;;;1.67;0.73;;;22.50;52.70;;;;;;5055918;28;20036;-61
2022/06/20 02:03:38;;;;;;;3.33;0.80;;;22.50;53.50;;;;;;5055467;28;20675;-61
2022/06/20 02:06:07;;;;;;;3.10;1.07;;;22.50;52.70;;;;;;5055289;28;20271;-61
2022/06/20 02:08:37;;;;;;;1.73;0.70;;;22.50;52.70;;;;;;5054169;28;20684;-61
2022/06/20 02:11:20;;;;;;;2.30;0.95;;;22.50;52.70;;;;;;5051003;28;20040;-61
2022/06/20 02:13:50;;;;;;;1.42;0.70;;;22.50;52.80;;;;;;5037865;28;20083;-61
2022/06/20 02:16:20;;;;;;;3.33;1.00;;;22.50;52.80;;;;;;5054429;28;20056;-61
2022/06/20 02:18:49;;;;;;;1.73;0.67;;;22.50;52.80;;;;;;5054056;28;20034;-62
2022/06/20 02:21:23;;;;;;;1.33;0.68;;;22.50;52.70;;;;;;5053777;28;20496;-61
2022/06/20 02:23:53;;;;;;;3.03;0.77;;;22.50;52.70;;;;;;5052555;28;20064;-62
2022/06/20 02:26:21;;;;;;;3.55;0.75;;;22.50;52.70;;;;;;5056358;28;20043;-62
2022/06/20 02:29:06;;;;;;;2.65;0.82;;;22.50;52.70;;;;;;5056354;28;20535;-62
2022/06/20 02:31:32;;;;;;;1.13;0.50;;;22.50;52.60;;;;;;5055307;28;20401;-61
2022/06/20 02:33:59;;;;;;;1.95;0.80;;;22.50;52.70;;;;;;5056686;28;20037;-61
2022/06/20 02:36:24;;;;;;;1.73;0.70;;;22.50;52.70;;;;;;5056150;28;20048;-61
2022/06/20 02:38:52;;;;;;;2.35;0.93;;;22.50;52.70;;;;;;5056595;28;20396;-61
2022/06/20 02:41:21;;;;;;;1.17;0.50;;;22.50;52.70;;;;;;5036654;28;20055;-62
2022/06/20 02:43:52;;;;;;;2.90;0.93;;;22.50;52.70;;;;;;5052953;28;20043;-61
2022/06/20 02:46:19;;;;;;;;;;;22.50;52.60;;;;;;5058272;28;20113;-63
2022/06/20 02:48:49;;;;;;;3.10;0.88;;;22.50;52.60;;;;;;5056516;28;19927;-61
2022/06/20 02:51:20;;;;;;;1.33;0.43;;;22.40;52.70;;;;;;5055075;28;20067;-62
2022/06/20 02:54:07;;;;;;;1.45;0.90;;;22.50;52.80;;;;;;5055228;28;20037;-61
2022/06/20 02:56:45;;;;;;;1.85;0.80;;;22.50;52.70;;;;;;5056869;28;20095;-61
2022/06/20 02:59:17;;;;;;;1.92;1.10;;;22.50;52.70;;;;;;5055733;28;20131;-61
2022/06/20 03:02:17;;;;;;;2.50;0.98;;;22.50;52.70;;;;;;5058082;28;20428;-61
2022/06/20 03:04:45;;;;;;;1.38;0.60;;;22.50;52.60;;;;;;5021832;28;20052;-62
2022/06/20 03:07:32;;;;;;;2.65;0.70;;;22.40;52.70;;;;;;5054751;28;20032;-61
2022/06/20 03:10:13;;;;;;;1.90;0.55;;;22.40;52.70;;;;;;5054800;28;20036;-61
2022/06/20 03:12:38;;;;;;;2.00;0.90;;;22.40;52.60;;;;;;5054573;28;20141;-61
2022/06/20 03:15:05;;;;;;;1.73;0.70;;;22.40;52.70;;;;;;5055556;28;20476;-61
2022/06/20 03:17:31;;;;;;;1.48;0.70;;;22.40;52.60;;;;;;5054278;28;20037;-61
2022/06/20 03:20:01;;;;;;;2.05;0.85;;;22.40;52.60;;;;;;5053930;28;20116;-63
2022/06/20 03:22:33;;;;;;;1.00;0.73;;;22.40;53.40;;;;;;5055281;28;20047;-61
2022/06/20 03:24:59;;;;;;;2.38;0.82;;;22.40;52.60;;;;;;5056341;28;20513;-61
2022/06/20 03:27:28;;;;;;;2.38;0.60;;;22.40;52.60;;;;;;5055821;28;20080;-61
2022/06/20 03:29:57;;;;;;;2.58;0.80;;;22.40;52.60;;;;;;5051496;28;20116;-61
2022/06/20 03:32:23;;;;;;;1.35;0.70;;;22.40;53.30;;;;;;5052325;28;20036;-62
2022/06/20 03:34:53;;;;;;;1.48;0.60;;;22.40;52.50;;;;;;5053515;28;20044;-61
2022/06/20 03:37:20;;;;;;;0.70;0.45;;;22.40;52.60;;;;;;5053786;28;20126;-61
2022/06/20 03:39:47;;;;;;;2.00;0.70;;;22.40;52.60;;;;;;5038048;28;20040;-61
2022/06/20 03:42:14;;;;;;;1.50;0.85;;;22.40;52.60;;;;;;5056378;28;20535;-61
2022/06/20 03:44:45;;;;;;;1.48;0.75;;;22.40;52.50;;;;;;5052200;28;20520;-61
2022/06/20 03:47:34;;;;;;;1.50;0.65;;;22.40;52.50;;;;;;5054174;28;20467;-61
2022/06/20 03:50:32;;;;;;;1.67;0.90;;;22.40;52.50;;;;;;5054730;28;20039;-61
2022/06/20 03:53:14;;;;;;;1.23;0.60;;;22.40;52.50;;;;;;5057017;28;20037;-61
2022/06/20 03:56:03;;;;;;;1.80;1.00;;;22.40;52.50;;;;;;5055667;28;20032;-61
2022/06/20 03:58:38;;;;;;;2.40;0.90;;;22.40;52.50;;;;;;5054055;28;20119;-61
2022/06/20 04:01:16;;;;;;;1.63;0.80;;;22.40;52.50;;;;;;5052841;28;20041;-61
2022/06/20 04:03:56;;;;;;;1.48;0.60;;;22.40;52.50;;;;;;5055563;28;20424;-61
2022/06/20 04:06:25;;;;;;;2.20;0.70;;;22.40;52.50;;;;;;5052204;28;20665;-61
2022/06/20 04:12:07;;;;;;;1.60;0.73;;;22.40;52.50;;;;;;5052370;28;20496;-61
2022/06/20 04:15:01;;;;;;;1.90;0.70;;;22.40;52.60;;;;;;5037570;28;20709;-61
2022/06/20 04:20:42;;;;;;;1.77;0.77;;;22.40;52.50;;;;;;5054827;28;20063;-62
2022/06/20 04:23:28;;;;;;;;;;;22.30;52.60;;;;;;5054283;28;20427;-61
2022/06/20 04:26:01;;;;;;;1.50;0.65;;;22.30;52.40;;;;;;5052744;28;19928;-61
2022/06/20 04:28:39;;;;;;;1.40;0.70;;;22.30;52.60;;;;;;5054350;28;20056;-61
2022/06/20 04:31:19;;;;;;;1.70;0.80;;;22.30;52.50;;;;;;5052241;28;20087;-61
2022/06/20 04:33:53;;;;;;;1.93;0.60;;;22.30;52.50;;;;;;5036904;28;20037;-61
2022/06/20 04:36:35;;;;;;;2.45;0.80;;;22.30;52.50;;;;;;5052619;28;20040;-61
2022/06/20 04:39:25;;;;;;;2.78;0.73;;;22.30;52.50;;;;;;5055662;28;20039;-61
2022/06/20 04:42:12;;;;;;;1.20;0.65;;;22.30;52.40;;;;;;5053089;28;20040;-61
2022/06/20 04:44:50;;;;;;;1.60;0.80;;;22.30;52.50;;;;;;5055777;28;20107;-61
2022/06/20 04:47:44;;;;;;;1.23;0.65;;;22.30;52.50;;;;;;5059599;28;20469;-61
2022/06/20 04:50:19;;;;;;;2.58;0.75;;;22.30;52.50;;;;;;5059430;28;20044;-61
2022/06/20 04:52:45;;;;;;;1.35;0.52;;;22.30;52.50;;;;;;5058025;28;20308;-61
2022/06/20 04:55:18;;;;;;;3.08;0.77;;;22.30;52.50;;;;;;5060154;28;20262;-61
2022/06/20 04:57:44;;;;;;;1.38;0.60;;;22.30;52.50;;;;;;5058869;28;20400;-61
2022/06/20 05:00:20;;;;;;;0.93;0.60;;;22.30;52.50;;;;;;5045549;28;20033;-62
2022/06/20 05:02:48;;;;;;;2.08;0.80;;;22.30;52.40;;;;;;5056218;28;20061;-61
2022/06/20 05:05:19;;;;;;;1.73;0.70;;;22.30;52.40;;;;;;5055388;28;20048;-62
2022/06/20 05:07:47;;;;;;;2.10;0.82;;;22.30;52.50;;;;;;5056830;28;20024;-61
2022/06/20 05:10:19;;;;;;;0.95;0.75;;;22.30;52.50;;;;;;5056720;28;20385;-62
2022/06/20 05:12:57;;;;;;;1.88;0.90;;;22.30;52.50;;;;;;5056807;28;20322;-61
2022/06/20 05:15:29;;;;;;;1.80;0.70;;;22.30;52.40;;;;;;5055352;28;20440;-62
2022/06/20 05:17:56;;;;;;;2.90;0.80;;;22.30;52.30;;;;;;5055277;28;20045;-62
2022/06/20 05:20:35;;;;;;;2.05;0.85;;;22.30;52.30;;;;;;5053611;28;20576;-62
2022/06/20 05:23:13;;;;;;;1.65;0.60;;;22.30;52.30;;;;;;5053304;28;20087;-61
2022/06/20 05:25:40;;;;;;;2.03;0.90;;;22.30;52.30;;;;;;5056062;28;20464;-61
2022/06/20 05:28:13;;;;;;;1.85;0.80;;;22.30;52.40;;;;;;5056161;28;20059;-62
2022/06/20 05:30:41;;;;;;;7.40;0.70;;;22.30;52.30;;;;;;5054891;28;20495;-62
2022/06/20 05:33:29;;;;;;;1.83;0.90;;;22.30;52.30;;;;;;5056185;28;20045;-62
2022/06/20 05:36:21;;;;;;;1.30;0.60;;;22.30;52.10;;;;;;5057957;28;20049;-61
2022/06/20 05:39:01;;;;;;;1.33;0.68;;;22.30;52.00;;;;;;5057266;28;20056;-62
2022/06/20 05:41:27;;;;;;;3.38;0.90;;;22.30;51.70;;;;;;5056820;28;20036;-62
2022/06/20 05:43:53;;;;;;;2.17;1.00;;;22.30;51.40;;;;;;5055901;28;20118;-62
2022/06/20 05:46:31;;;;;;;2.90;1.15;;;22.20;51.30;;;;;;5054674;28;20051;-61
2022/06/20 05:49:07;;;;;;;3.63;1.10;;;22.20;51.30;;;;;;5055462;28;20084;-61
2022/06/20 05:51:37;;;;;;;5.45;1.48;;;22.20;50.90;;;;;;5058951;28;20044;-61
2022/06/20 05:54:09;;;;;;;4.05;1.40;;;22.20;50.60;;;;;;5055876;28;20111;-62
2022/06/20 05:56:44;;;;;;;4.68;1.38;;;22.20;50.70;;;;;;5058647;28;20043;-64
2022/06/20 05:59:31;;;;;;;2.80;1.40;;;22.20;50.50;;;;;;5051819;28;20033;-62
2022/06/20 06:02:12;;;;;;;3.85;1.73;;;22.20;50.50;;;;;;5036913;28;20045;-63
2022/06/20 06:04:45;;;;;;;;;;;22.20;50.50;;;;;;5054369;28;20186;-63
2022/06/20 06:07:16;;;;;;;4.85;1.20;;;22.10;51.00;;;;;;5053384;28;19916;-63
2022/06/20 06:09:55;;;;;;;3.33;1.20;;;22.10;51.30;;;;;;5035492;28;20501;-63
2022/06/20 06:12:31;;;;;;;3.28;1.27;;;22.10;51.50;;;;;;5051851;28;20048;-63
2022/06/20 06:15:10;;;;;;;5.15;1.27;;;22.10;51.40;;;;;;5055297;28;20041;-62
2022/06/20 06:17:43;;;;;;;3.30;1.50;;;22.20;51.60;;;;;;5055323;28;20087;-63
2022/06/20 06:20:17;;;;;;;3.08;1.48;;;22.20;51.20;;;;;;5054214;28;20036;-63
2022/06/20 06:22:46;;;;;;;5.55;2.03;;;22.20;51.40;;;;;;5054353;28;20032;-63
2022/06/20 06:25:23;;;;;;;5.07;1.92;;;22.20;51.30;;;;;;5054103;28;20061;-63
2022/06/20 06:27:53;;;;;;;8.05;1.50;;;22.20;51.20;;;;;;5050537;28;20052;-63
2022/06/20 06:30:18;;;;;;;7.05;1.83;;;22.20;51.30;;;;;;5054374;28;20045;-63
2022/06/20 06:32:51;;;;;;;6.07;1.60;;;22.20;51.30;;;;;;5053210;28;20028;-63
2022/06/20 06:35:43;;;;;;;6.55;1.90;;;22.20;51.20;;;;;;5053415;28;20599;-63
2022/06/20 06:38:22;;;;;;;7.53;1.80;;;22.20;50.80;;;;;;5051765;28;20441;-64
2022/06/20 06:40:53;;;;;;;3.78;1.70;;;22.20;51.00;;;;;;5053173;28;20072;-64
2022/06/20 06:43:37;;;;;;;3.85;1.70;;;22.20;50.90;;;;;;5054486;28;20036;-64
2022/06/20 06:46:06;;;;;;;6.32;1.90;;;22.20;50.50;;;;;;5066264;28;20076;-64
2022/06/20 06:48:36;;;;;;;8.10;2.28;;;22.10;50.40;;;;;;5054856;28;20563;-64
2022/06/20 06:51:09;;;;;;;7.03;2.20;;;22.10;50.20;;;;;;5053786;28;20047;-64
2022/06/20 06:54:01;;;;;;;5.07;1.88;;;22.10;50.10;;;;;;5054550;28;20136;-64
2022/06/20 06:56:53;;;;;;;5.75;1.98;;;22.10;50.00;;;;;;5055809;28;20036;-63
2022/06/20 06:59:44;;;;;;;7.13;2.50;;;22.10;50.10;;;;;;5036731;28;20037;-64
2022/06/20 07:02:30;;;;;;;4.32;2.30;;;22.10;49.90;;;;;;5039868;28;20499;-64
2022/06/20 07:05:36;;;;;;;5.05;2.22;;;22.10;49.80;;;;;;5052386;28;20044;-65
2022/06/20 07:08:20;;;;;;;7.50;2.13;;;22.10;49.40;;;;;;5051471;28;20072;-67
2022/06/20 07:10:46;;;;;;;5.70;1.95;;;22.10;49.90;;;;;;5054027;28;20040;-64
2022/06/20 07:13:23;;;;;;;10.40;2.20;;;22.10;50.10;;;;;;5021040;28;20497;-65
2022/06/20 07:15:54;;;;;;;4.07;1.83;;;22.10;50.00;;;;;;5052177;28;20118;-64
2022/06/20 07:18:39;;;;;;;8.73;2.30;;;22.10;49.80;;;;;;5008063;28;20032;-65
2022/06/20 07:21:05;;;;;;;6.72;2.60;;;22.10;49.50;;;;;;5037373;28;20048;-64
2022/06/20 07:23:31;;;;;;;8.43;2.70;;;22.10;49.30;;;;;;5051069;28;20731;-64
2022/06/20 07:25:57;;;;;;;10.13;2.65;;;22.10;49.40;;;;;;5054332;28;20048;-64
2022/06/20 07:28:35;;;;;;;4.78;2.13;;;22.10;49.60;;;;;;5049673;28;20464;-66
2022/06/20 07:31:15;;;;;;;6.78;2.55;;;22.10;49.60;;;;;;5051594;28;20045;-66
2022/06/20 07:33:52;;;;;;;5.25;2.10;;;22.10;49.50;;;;;;5067397;28;20037;-62
2022/06/20 07:36:24;;;;;;;5.45;2.25;;;22.10;49.40;;;;;;5049932;28;20408;-65
2022/06/20 07:39:01;;;;;;;7.22;2.38;;;22.10;49.50;;;;;;5049520;28;20111;-63
2022/06/20 07:41:33;;;;;;;7.43;2.45;;;22.10;49.60;;;;;;5050566;28;20052;-61
2022/06/20 07:44:19;;;;;;;5.68;2.53;;;22.10;50.00;;;;;;5053188;28;20043;-61
2022/06/20 07:47:08;;;;;;;9.85;2.53;;;22.10;50.40;;;;;;5053202;28;20075;-61
2022/06/20 07:49:42;;;;;;;5.60;2.42;;;22.10;50.50;;;;;;5050802;28;20036;-64
2022/06/20 07:52:17;;;;;;;8.15;2.10;;;22.10;50.50;;;;;;5048220;28;20040;-63
2022/06/20 07:54:48;;;;;;;6.30;2.20;;;22.20;50.50;;;;;;5033637;28;20048;-58
2022/06/20 07:57:21;;;;;;;6.25;2.10;;;22.10;49.50;;;;;;5032791;28;20045;-62
2022/06/20 07:59:57;;;;;;;6.47;2.40;;;22.10;49.00;;;;;;5054857;28;20384;-62
2022/06/20 08:02:38;;;;;;;5.82;2.00;;;22.10;49.20;;;;;;5042548;28;20087;-62
2022/06/20 08:05:06;;;;;;;4.72;2.38;;;22.10;49.00;;;;;;5052894;28;20040;-63
2022/06/20 08:07:40;;;;;;;6.05;2.00;;;22.00;48.90;;;;;;5053522;28;20044;-63
2022/06/20 08:10:24;;;;;;;5.40;2.00;;;22.10;48.80;;;;;;5052644;28;20050;-64
2022/06/20 08:12:59;;;;;;;5.30;2.25;;;22.00;49.10;;;;;;5054436;28;20097;-64
2022/06/20 08:15:57;;;;;;;3.90;2.00;;;22.10;49.80;;;;;;5037812;28;20061;-64
2022/06/20 08:18:24;;;;;;;3.85;1.90;;;22.10;50.30;;;;;;5053883;28;20453;-60
2022/06/20 08:21:01;;;;;;;6.40;2.50;;;22.10;50.70;;;;;;5053821;28;20073;-63
2022/06/20 08:23:34;;;;;;;5.80;1.80;;;22.10;51.10;;;;;;5060222;28;20396;-62
2022/06/20 08:26:06;;;;;;;4.38;2.08;;;22.10;51.20;;;;;;5056734;28;20043;-63
2022/06/20 08:28:40;;;;;;;6.45;2.45;;;22.20;51.50;;;;;;5056544;28;20059;-60
2022/06/20 08:31:24;;;;;;;5.03;2.13;;;22.20;51.70;;;;;;5044225;28;20048;-62
2022/06/20 08:34:00;;;;;;;5.72;2.22;;;22.20;52.00;;;;;;5057773;28;20148;-60
2022/06/20 08:36:43;;;;;;;3.78;1.95;;;22.20;52.00;;;;;;5057079;28;20039;-62
2022/06/20 08:39:21;;;;;;;4.43;2.22;;;22.20;52.20;;;;;;5058999;28;20091;-62
2022/06/20 08:41:57;;;;;;;3.45;2.00;;;22.30;52.20;;;;;;5057594;28;20041;-59
2022/06/20 08:44:47;;;;;;;8.50;2.42;;;22.30;52.30;;;;;;5060116;28;20048;-63
2022/06/20 08:47:41;;;;;;;4.28;2.13;;;22.30;51.80;;;;;;5075004;28;20044;-63
2022/06/20 08:50:51;;;;;;;5.93;2.38;;;22.30;51.60;;;;;;5028020;28;20436;-60
2022/06/20 08:53:54;;;;;;;4.05;2.20;;;22.30;52.10;;;;;;5057612;28;20122;-62
2022/06/20 08:56:58;;;;;;;7.38;1.98;;;22.30;52.20;;;;;;5040072;28;20059;-62
2022/06/20 08:59:32;;;;;;;5.63;1.90;;;22.30;52.00;;;;;;5058015;28;20039;-59
2022/06/20 09:02:07;;;;;;;6.13;2.33;;;22.30;51.90;;;;;;5054389;28;20044;-62
2022/06/20 09:04:58;;;;;;;5.13;2.15;;;22.30;52.50;;;;;;5051817;28;20048;-63
2022/06/20 09:08:05;;;;;;;4.53;1.95;;;22.30;51.40;;;;;;5056009;28;20059;-63
2022/06/20 09:11:02;;;;;;;6.18;1.92;;;22.30;50.90;;;;;;5018459;28;20437;-63
2022/06/20 09:13:55;;;;;;;3.05;1.52;;;22.30;50.60;;;;;;5054809;28;20048;-62
2022/06/20 09:16:44;;;;;;;5.70;2.05;;;22.30;50.30;;;;;;5056723;28;20037;-62
2022/06/20 09:19:21;;;;;;;4.50;1.70;;;22.30;49.40;;;;;;5059541;28;20699;-61
2022/06/20 09:21:57;;;;;;;4.60;1.80;;;22.30;49.30;;;;;;5057107;28;20095;-58
2022/06/20 09:24:41;;;;;;;4.88;1.67;;;22.20;49.40;;;;;;5056875;28;20048;-58
2022/06/20 09:27:13;;;;;;;5.57;1.55;;;22.30;49.40;;;;;;5024351;28;20150;-57
2022/06/20 09:30:14;;;;;;;4.75;1.73;;;22.20;49.00;;;;;;5052868;28;20666;-58
2022/06/20 09:32:49;;;;;;;4.68;1.73;;;22.30;49.50;;;;;;5052111;28;20044;-58
2022/06/20 09:35:51;;;;;;;3.30;1.40;;;22.20;49.40;;;;;;5054308;28;20041;-58
2022/06/20 09:38:20;;;;;;;4.22;1.70;;;22.30;49.40;;;;;;5051775;28;20190;-58
2022/06/20 09:41:23;;;;;;;3.53;1.33;;;22.20;49.20;;;;;;5053145;28;20063;-57
2022/06/20 09:44:00;;;;;;;4.65;1.75;;;22.20;49.00;;;;;;5053945;28;20047;-57
2022/06/20 09:46:54;;;;;;;3.45;1.45;;;22.20;48.90;;;;;;5054914;28;20040;-60
2022/06/20 09:49:33;;;;;;;1.85;1.08;;;22.20;49.10;;;;;;5053729;28;20548;-58
2022/06/20 09:52:46;;;;;;;1.52;1.10;;;22.20;49.00;;;;;;5055479;28;20090;-58
2022/06/20 09:55:40;;;;;;;2.20;1.20;;;22.20;48.90;;;;;;5024859;28;20402;-59
2022/06/20 09:58:32;;;;;;;3.17;1.52;;;22.20;48.90;;;;;;5038414;28;20444;-58
2022/06/20 10:01:33;;;;;;;3.10;1.30;;;22.20;49.00;;;;;;5052898;28;20067;-56
2022/06/20 10:04:27;;;;;;;4.40;1.70;;;22.20;48.80;;;;;;5050081;28;20110;-57
2022/06/20 10:07:08;;;;;;;2.20;1.05;;;22.20;48.50;;;;;;5040371;28;20045;-56
2022/06/20 10:09:59;;;;;;;2.45;1.33;;;22.20;48.50;;;;;;5052849;28;20045;-57
2022/06/20 10:12:31;;;;;;;3.90;1.10;;;22.20;48.00;;;;;;5051433;28;20041;-58
2022/06/20 10:15:06;;;;;;;2.65;1.38;;;22.20;47.90;;;;;;5056148;28;20121;-57
2022/06/20 10:17:49;;;;;;;2.55;1.38;;;22.20;47.80;;;;;;5036582;28;20051;-57
2022/06/20 10:20:29;;;;;;;3.38;1.58;;;22.20;47.20;;;;;;5038780;28;20176;-57
2022/06/20 10:23:12;;;;;;;4.18;1.67;;;22.20;47.40;;;;;;5053832;28;20388;-58
2022/06/20 10:26:04;;;;;;;4.88;1.20;;;22.20;47.10;;;;;;5055820;28;20048;-57
2022/06/20 10:28:53;;;;;;;3.83;1.20;;;22.20;47.60;;;;;;5057337;28;20037;-57
2022/06/20 10:31:22;;;;;;;3.90;1.05;;;22.20;47.70;;;;;;5056500;28;20048;-58
2022/06/20 10:34:06;;;;;;;2.92;1.60;;;22.20;47.90;;;;;;5056131;28;20029;-58
2022/06/20 10:36:49;;;;;;;4.40;1.25;;;22.20;47.80;;;;;;5056866;28;20783;-58
2022/06/20 10:39:42;;;;;;;1.48;1.30;;;22.20;47.80;;;;;;5053175;28;20079;-58
2022/06/20 10:42:32;;;;;;;1.67;1.13;;;22.20;47.90;;;;;;5055009;28;20607;-57
2022/06/20 10:45:35;;;;;;;4.63;1.60;;;22.20;48.00;;;;;;5053253;28;20167;-58
2022/06/20 10:48:41;;;;;;;3.72;1.30;;;22.20;48.10;;;;;;5054761;28;20318;-58
2022/06/20 10:51:10;;;;;;;13.80;12.38;;;22.20;48.30;;;;;;4992703;28;20045;-57
2022/06/20 10:54:02;;;;;;;15.00;12.88;;;22.20;48.40;;;;;;5042826;28;20049;-57
2022/06/20 10:56:45;;;;;;;14.30;11.48;;;22.20;48.50;;;;;;5055872;28;20462;-57
2022/06/20 10:59:50;;;;;;;13.50;9.50;;;22.20;48.80;;;;;;5055702;28;20103;-56
2022/06/20 11:02:25;;;;;;;17.00;13.30;;;22.20;48.90;;;;;;5053527;28;20048;-56
2022/06/20 11:05:03;;;;;;;12.75;8.50;;;22.20;49.10;;;;;;5055650;28;20076;-58
2022/06/20 11:07:54;;;;;;;10.63;8.68;;;22.20;49.10;;;;;;5054833;28;20135;-56
2022/06/20 11:10:39;;;;;;;13.25;8.95;;;22.20;49.10;;;;;;5054541;28;20088;-58
2022/06/20 11:13:14;;;;;;;7.97;7.18;;;22.20;49.20;;;;;;5055171;28;20158;-57
2022/06/20 11:15:51;;;;;;;9.00;6.90;;;22.20;49.30;;;;;;5053819;28;20036;-58
2022/06/20 11:18:32;;;;;;;11.20;7.88;;;22.20;49.20;;;;;;5055074;28;20033;-58
2022/06/20 11:21:13;;;;;;;9.95;5.32;;;22.20;49.30;;;;;;5054798;28;20043;-60
2022/06/20 11:23:58;;;;;;;10.52;6.90;;;22.30;49.10;;;;;;5055215;28;20091;-56
2022/06/20 11:26:37;;;;;;;8.73;6.05;;;22.20;49.20;;;;;;5055757;28;20099;-58
2022/06/20 11:29:17;;;;;;;6.90;4.50;;;22.20;49.20;;;;;;5051556;28;20041;-58
2022/06/20 11:32:15;;;;;;;9.57;4.45;;;22.20;49.00;;;;;;5051456;28;20075;-58
2022/06/20 11:34:50;;;;;;;8.43;3.83;;;22.30;49.10;;;;;;5036413;28;20048;-59
2022/06/20 11:38:01;;;;;;;5.70;3.33;;;22.20;49.00;;;;;;5052872;28;20072;-59
2022/06/20 11:40:41;;;;;;;5.95;3.85;;;22.30;49.00;;;;;;5039370;28;20128;-58
2022/06/20 11:43:36;;;;;;;11.98;3.28;;;22.20;49.10;;;;;;5053643;28;20037;-59
2022/06/20 11:46:36;;;;;;;6.15;3.40;;;22.30;49.10;;;;;;5055187;28;20485;-57
2022/06/20 11:49:20;;;;;;;8.50;3.00;;;22.30;49.10;;;;;;5053386;28;20114;-57
2022/06/20 11:52:27;;;;;;;5.82;3.05;;;22.30;49.10;;;;;;5054937;28;20610;-58
2022/06/20 11:55:16;;;;;;;6.15;2.70;;;22.30;49.20;;;;;;5043856;28;20033;-58
2022/06/20 11:57:53;;;;;;;7.63;2.47;;;22.30;49.30;;;;;;5053593;28;20492;-57
2022/06/20 12:00:22;;;;;;;4.90;2.78;;;22.30;49.30;;;;;;5053771;28;20095;-58
2022/06/20 12:03:13;;;;;;;5.15;2.88;;;22.20;49.30;;;;;;5036098;28;20089;-58
2022/06/20 12:06:01;;;;;;;4.72;2.50;;;22.30;49.50;;;;;;5052857;28;20036;-58
2022/06/20 12:08:47;;;;;;;3.95;2.60;;;22.30;49.60;;;;;;5053289;28;20145;-58
2022/06/20 12:11:30;;;;;;;3.72;2.20;;;22.20;49.50;;;;;;5056011;28;20215;-58
2022/06/20 12:13:59;;;;;;;3.55;2.20;;;22.30;49.50;;;;;;5055194;28;20045;-58
2022/06/20 12:16:53;;;;;;;4.65;1.83;;;22.20;49.60;;;;;;5053108;28;20045;-58
2022/06/20 12:25:31;;;;;;;3.63;2.00;;;22.30;49.70;;;;;;5052262;28;20098;-58
2022/06/20 12:27:57;;;;;;;5.43;2.25;;;22.30;49.70;;;;;;5054013;28;20094;-58
2022/06/20 12:30:23;;;;;;;3.50;1.85;;;22.20;49.70;;;;;;5054172;28;20044;-58
2022/06/20 12:32:54;;;;;;;4.47;2.00;;;22.30;49.80;;;;;;5052663;28;20489;-58
2022/06/20 12:35:43;;;;;;;5.38;2.05;;;22.30;49.60;;;;;;5053570;28;20047;-58
2022/06/20 12:38:31;;;;;;;4.60;2.05;;;22.20;49.40;;;;;;5049145;28;20091;-57
2022/06/20 12:40:59;;;;;;;2.92;1.92;;;22.30;50.40;;;;;;5052266;28;20162;-58
2022/06/20 12:43:56;;;;;;;3.90;1.73;;;22.30;50.80;;;;;;5055477;28;20040;-58
2022/06/20 12:46:27;;;;;;;5.20;1.70;;;22.30;50.50;;;;;;5050204;28;20044;-58
2022/06/20 12:49:02;;;;;;;4.72;1.75;;;22.30;50.20;;;;;;5053208;28;20449;-56
2022/06/20 12:51:49;;;;;;;4.85;1.85;;;22.20;50.10;;;;;;5050989;28;20522;-57
2022/06/20 12:54:41;;;;;;;3.63;1.65;;;22.30;50.10;;;;;;5034349;28;20048;-58
2022/06/20 12:57:31;;;;;;;4.43;1.50;;;22.30;50.10;;;;;;5051153;28;20500;-56
2022/06/20 13:00:18;;;;;;;3.60;1.60;;;22.30;49.90;;;;;;5053323;28;20158;-57
2022/06/20 13:03:15;;;;;;;2.75;1.40;;;22.30;49.60;;;;;;5053734;28;20287;-58
2022/06/20 13:06:06;;;;;;;2.53;1.20;;;22.30;49.20;;;;;;5029673;28;20094;-57
2022/06/20 13:08:57;;;;;;;3.30;1.63;;;22.30;49.30;;;;;;5057466;28;20563;-58
2022/06/20 13:12:03;;;;;;;4.75;1.77;;;22.30;49.50;;;;;;5059562;28;20079;-58
2022/06/20 13:14:47;;;;;;;3.72;1.75;;;22.30;49.70;;;;;;5057086;28;20107;-58
2022/06/20 13:17:25;;;;;;;3.40;1.67;;;22.30;49.60;;;;;;5058284;28;20051;-57
2022/06/20 13:19:59;;;;;;;4.30;1.58;;;22.30;49.90;;;;;;5061370;28;20040;-58
2022/06/20 13:22:48;;;;;;;3.67;1.30;;;22.30;49.70;;;;;;5059277;28;20499;-58
2022/06/20 13:25:34;;;;;;;3.03;1.55;;;22.30;49.50;;;;;;5049557;28;20049;-59
2022/06/20 13:28:18;;;;;;;3.88;1.30;;;22.30;49.40;;;;;;5038887;28;20093;-58
2022/06/20 13:30:44;;;;;;;3.40;1.52;;;22.30;49.40;;;;;;5057878;28;20412;-58
2022/06/20 13:33:36;;;;;;;4.35;1.40;;;22.30;49.40;;;;;;5056569;28;20039;-57
2022/06/20 13:36:12;;;;;;;4.55;1.60;;;22.40;49.80;;;;;;5055466;28;20068;-61
2022/06/20 13:39:05;;;;;;;4.47;1.45;;;22.30;50.20;;;;;;5056769;28;20044;-57
2022/06/20 13:41:44;;;;;;;3.55;1.40;;;22.40;50.00;;;;;;5055875;28;20063;-58
2022/06/20 13:44:36;;;;;;;3.50;1.67;;;22.40;50.00;;;;;;5055898;28;20401;-58
2022/06/20 13:47:01;;;;;;;4.97;1.50;;;22.40;49.90;;;;;;5055052;28;20041;-55
2022/06/20 13:49:32;;;;;;;5.45;1.67;;;22.40;50.50;;;;;;5055568;28;20504;-58
2022/06/20 13:52:29;;;;;;;6.65;3.13;;;22.40;49.80;;;;;;5055708;28;20139;-56
2022/06/20 13:55:17;;;;;;;10.40;4.88;;;22.40;49.70;;;;;;5056361;28;20099;-57
2022/06/20 13:58:14;;;;;;;15.02;6.60;;;22.40;49.50;;;;;;5055212;28;20186;-57
2022/06/20 14:00:41;;;;;;;19.08;8.02;;;22.40;49.50;;;;;;5055928;28;20082;-57
2022/06/20 14:03:34;;;;;;;19.30;7.82;;;22.40;49.30;;;;;;5037093;28;20068;-57